Aviation WX

[Source: ADDS]
METAR
KFKL 200735Z 12006KT 10SM 00/M02 A2987 RMK AO1 =
TAF
KFKL 200530Z 2006/2106 10004KT P6SM BKN250 FM201100 12008KT P6SM OVC070 FM201300 12008KT P6SM -RA OVC015 FM201500 12009KT 2SM -RA OVC008 FM202300 16006KT P6SM BKN003 OVC008 FM210100 17005KT P6SM OVC008 AMD NOT SKED =